KACY

Atlantic City International Airport

Atlantic City, New Jersey, USA
KACY 181720Z 1818/1918 VRB04KT 6SM BR SCT005 OVC020 TEMPO 1818/1821 OVC005 FM182100 28005KT P6SM OVC025 TEMPO 1821/1823 OVC015 FM190100 30005KT P6SM OVC040 FM190800 35004KT P6SM BKN200 FM191200 04005KT P6SM OVC200 FM191500 07007KT P6SM OVC100
Issued Valid From Valid To
Jan-18 @ 17:20 UTC
(3 hours ago)
Jan-18 @ 18:00 UTC
(3 hours ago)
Jan-19 @ 18:00 UTC
(in 21 hours)
Jan-18 @ 18:00 to Jan-18 @ 21:00
KACY 181720Z 1818/1918 VRB04KT 6SM BR SCT005 OVC020
Wind Visibility Clouds Conditions
Variable at 4 knots 6 miles
  • Scattered at 500' AGL
  • Overcast at 2,000' AGL
  • Mist
Temporary Jan-18 @ 18:00 to Jan-18 @ 21:00
TEMPO 1818/1821 OVC005
Clouds
  • Overcast at 500' AGL
Temporary Jan-18 @ 21:00 to Jan-18 @ 23:00
TEMPO 1821/1823 OVC015
Clouds
  • Overcast at 1,500' AGL
From Jan-18 @ 21:00 to Jan-19 @ 01:00
FM182100 28005KT P6SM OVC025
Wind Visibility Clouds
280° at 5 knots Greater than 6 miles
  • Overcast at 2,500' AGL
From Jan-19 @ 01:00 to Jan-19 @ 08:00
FM190100 30005KT P6SM OVC040
Wind Visibility Clouds
300° at 5 knots Greater than 6 miles
  • Overcast at 4,000' AGL
From Jan-19 @ 08:00 to Jan-19 @ 12:00
FM190800 35004KT P6SM BKN200
Wind Visibility Clouds
350° at 4 knots Greater than 6 miles
  • Broken at 20,000' AGL
From Jan-19 @ 12:00 to Jan-19 @ 15:00
FM191200 04005KT P6SM OVC200
Wind Visibility Clouds
40° at 5 knots Greater than 6 miles
  • Overcast at 20,000' AGL
From Jan-19 @ 15:00 to Jan-19 @ 18:00
FM191500 07007KT P6SM OVC100
Wind Visibility Clouds
70° at 7 knots Greater than 6 miles
  • Overcast at 10,000' AGL
KACY 181720Z 1818/1918 VRB04KT 6SM BR SCT005 OVC020 TEMPO 1818/1821 OVC005 FM182100 28005KT P6SM OVC025 TEMPO 1821/1823 OVC015 FM190100 30005KT P6SM OVC040 FM190800 35004KT P6SM BKN200 FM191200 04005KT P6SM OVC200 FM191500 07007KT P6SM OVC100
Issued Jan-18 @ 17:20 UTC
(3 hours ago)
Valid From Jan-18 @ 18:00 UTC
(3 hours ago)
Valid To Jan-19 @ 18:00 UTC
(in 21 hours)
Jan-18 @ 18:00 - Jan-18 @ 21:00
Wind Visibility
Variable at 4 knots 6 miles
Clouds
  • Scattered at 500' AGL
  • Overcast at 2,000' AGL
Conditions
  • Mist
Temporary Jan-18 @ 18:00 - Jan-18 @ 21:00
Clouds
  • Overcast at 500' AGL
Temporary Jan-18 @ 21:00 - Jan-18 @ 23:00
Clouds
  • Overcast at 1,500' AGL
From Jan-18 @ 21:00 - Jan-19 @ 01:00
Wind Visibility
280° at 5 knots Greater than 6 miles
Clouds
  • Overcast at 2,500' AGL
From Jan-19 @ 01:00 - Jan-19 @ 08:00
Wind Visibility
300° at 5 knots Greater than 6 miles
Clouds
  • Overcast at 4,000' AGL
From Jan-19 @ 08:00 - Jan-19 @ 12:00
Wind Visibility
350° at 4 knots Greater than 6 miles
Clouds
  • Broken at 20,000' AGL
From Jan-19 @ 12:00 - Jan-19 @ 15:00
Wind Visibility
40° at 5 knots Greater than 6 miles
Clouds
  • Overcast at 20,000' AGL
From Jan-19 @ 15:00 - Jan-19 @ 18:00
Wind Visibility
70° at 7 knots Greater than 6 miles
Clouds
  • Overcast at 10,000' AGL